Time;durP1;ratioP1;P1;durP2;ratioP2;P2;SDS_P1;SDS_P2;PMS_P1;PMS_P2;Temp;Humidity;BMP_temperature;BMP_pressure;BME280_temperature;BME280_humidity;BME280_pressure;Samples;Min_cycle;Max_cycle;Signal;HPM_P1;HPM_P2
2022/05/03 00:01:58;;;;;;;25.77;21.48;;;;;;;7.50;nan;101927.44;4998548;28;20034;-46
2022/05/03 00:04:45;;;;;;;25.63;21.35;;;;;;;7.45;nan;101926.59;5034307;28;20396;-41
2022/05/03 00:07:27;;;;;;;25.95;21.15;;;;;;;7.00;nan;101849.03;5034256;28;20029;-43
2022/05/03 00:10:06;;;;;;;25.50;21.65;;;;;;;7.36;nan;101929.22;5016573;28;20044;-44
2022/05/03 00:12:39;;;;;;;28.52;23.17;;;;;;;6.97;nan;101864.72;5034501;28;20030;-45
2022/05/03 00:15:05;;;;;;;28.98;23.23;;;;;;;7.19;nan;101916.16;5017054;28;20124;-43
2022/05/03 00:17:32;;;;;;;30.70;24.35;;;;;;;7.31;nan;101926.63;5033208;28;20029;-44
2022/05/03 00:19:58;;;;;;;32.22;24.20;;;;;;;6.97;nan;101862.13;5034280;28;20057;-48
2022/05/03 00:22:24;;;;;;;32.92;26.27;;;;;;;6.91;nan;101854.25;5034031;28;20292;-44
2022/05/03 00:24:54;;;;;;;32.20;24.63;;;;;;;7.29;nan;101924.91;5034171;28;20025;-43
2022/05/03 00:27:23;;;;;;;30.88;24.08;;;;;;;6.86;nan;101852.53;5032903;28;20026;-42
2022/05/03 00:29:49;;;;;;;33.58;24.45;;;;;;;7.26;nan;101924.91;5032899;28;20552;-42
2022/05/03 00:32:15;;;;;;;34.08;24.13;;;;;;;7.22;nan;101917.91;5015970;28;20136;-39
2022/05/03 00:34:41;;;;;;;33.05;26.85;;;;;;;6.96;nan;101870.81;5016250;28;20029;-43
2022/05/03 00:37:06;;;;;;;33.70;25.35;;;;;;;7.17;nan;101901.34;5016209;28;20030;-41
2022/05/03 00:39:32;;;;;;;30.75;24.50;;;;;;;7.26;nan;101917.91;5034096;28;20544;-42
2022/05/03 00:42:01;;;;;;;30.40;24.73;;;;;;;7.23;nan;101922.28;5016272;28;20508;-42
2022/05/03 00:45:04;;;;;;;30.60;24.98;;;;;;;7.19;nan;101925.78;5032590;28;20042;-42
2022/05/03 00:47:51;;;;;;;35.47;25.70;;;;;;;7.18;nan;101931.91;5033714;28;20113;-43
2022/05/03 00:50:20;;;;;;;34.90;24.80;;;;;;;7.17;nan;101938.88;5032703;28;20029;-45
2022/05/03 00:52:49;;;;;;;32.22;25.77;;;;;;;6.80;nan;101864.72;5033641;28;20029;-44
2022/05/03 00:55:35;;;;;;;31.23;25.40;;;;;;;7.15;nan;101931.91;5015961;28;20033;-46
2022/05/03 00:58:09;;;;;;;34.13;26.08;;;;;;;7.12;nan;101919.66;5033620;28;20029;-45
2022/05/03 01:00:42;;;;;;;33.28;26.98;;;;;;;6.71;nan;101856.88;5033288;28;20515;-46
2022/05/03 01:03:10;;;;;;;35.40;25.35;;;;;;;6.65;nan;101849.06;5015661;28;20037;-45
2022/05/03 01:06:09;;;;;;;32.88;25.48;;;;;;;6.95;nan;101910.06;5015296;28;20034;-43
2022/05/03 01:08:57;;;;;;;31.75;25.75;;;;;;;6.86;nan;101915.34;5003350;28;20045;-44
2022/05/03 01:11:46;;;;;;;30.92;25.73;;;;;;;6.58;nan;101865.63;5032285;28;20028;-42
2022/05/03 01:14:31;;;;;;;33.08;26.45;;;;;;;6.82;nan;101919.69;5033341;28;20033;-46
2022/05/03 01:17:03;;;;;;;31.35;25.70;;;;;;;6.45;nan;101852.53;5033214;28;20040;-42
2022/05/03 01:19:44;;;;;;;34.30;26.35;;;;;;;6.76;nan;101907.47;5015341;28;20084;-42
2022/05/03 01:22:37;;;;;;;32.58;25.80;;;;;;;6.42;nan;101849.94;5033103;28;20453;-51
2022/05/03 01:25:24;;;;;;;35.80;25.90;;;;;;;6.69;nan;101918.81;5033035;28;20040;-44
2022/05/03 01:27:49;;;;;;;33.47;27.58;;;;;;;6.68;nan;101921.44;5033166;28;20448;-42
2022/05/03 01:30:16;;;;;;;36.70;27.83;;;;;;;6.39;nan;101858.59;5033262;28;20053;-47
2022/05/03 01:32:46;;;;;;;34.80;27.50;;;;;;;6.66;nan;101908.34;5032017;28;20167;-44
2022/05/03 01:35:14;;;;;;;35.85;28.52;;;;;;;6.66;nan;101907.47;5031779;28;20033;-40
2022/05/03 01:37:43;;;;;;;39.10;28.42;;;;;;;6.69;nan;101900.50;5032523;28;20033;-46
2022/05/03 01:40:16;;;;;;;36.00;29.05;;;;;;;6.35;nan;101856.88;5033005;28;20119;-45
2022/05/03 01:43:20;;;;;;;33.10;26.85;;;;;;;6.62;nan;101905.72;5030612;28;20183;-43
2022/05/03 01:46:16;;;;;;;36.97;28.52;;;;;;;6.18;nan;101835.06;4952404;28;20117;-42
2022/05/03 01:51:44;;;;;;;34.67;27.80;;;;;;;6.56;nan;101904.00;5032006;28;20546;-47
2022/05/03 01:54:27;;;;;;;38.20;30.25;;;;;;;6.54;nan;101900.47;5032503;28;20085;-44
2022/05/03 01:57:21;;;;;;;39.20;29.45;;;;;;;6.53;nan;101893.53;5032726;28;20473;-44
2022/05/03 02:00:02;;;;;;;41.85;32.28;;;;;;;6.13;nan;101832.44;5032551;28;20029;-47
2022/05/03 02:02:46;;;;;;;41.38;29.88;;;;;;;6.53;nan;101892.66;5032561;28;20427;-42
2022/05/03 02:05:31;;;;;;;38.13;30.13;;;;;;;6.15;nan;101835.94;5032819;28;20095;-43
2022/05/03 02:07:57;;;;;;;36.83;30.38;;;;;;;6.09;nan;101833.31;5032525;28;20032;-44
2022/05/03 02:10:52;;;;;;;40.17;30.58;;;;;;;6.47;nan;101896.13;5032586;28;20481;-42
2022/05/03 02:14:44;;;;;;;43.63;30.27;;;;;;;6.46;nan;101894.38;5032580;28;20393;-44
2022/05/03 02:16:28;;;;;;;36.70;29.10;;;;;;;6.41;nan;101888.28;5017382;28;20042;-43
2022/05/03 02:19:25;;;;;;;41.58;30.50;;;;;;;6.43;nan;101894.38;5031081;28;20491;-46
2022/05/03 02:22:09;;;;;;;37.90;28.58;;;;;;;6.43;nan;101915.28;5031155;28;20060;-45
2022/05/03 02:24:48;;;;;;;36.95;28.55;;;;;;;6.43;nan;101896.09;5032233;28;20037;-42
2022/05/03 02:27:16;;;;;;;40.78;29.70;;;;;;;6.41;nan;101895.25;5032271;28;20021;-49
2022/05/03 02:29:49;;;;;;;38.85;29.98;;;;;;;6.31;nan;101877.78;5032565;28;20091;-49
2022/05/03 02:32:18;;;;;;;43.38;30.63;;;;;;;6.42;nan;101903.06;5032317;28;20155;-41
2022/05/03 02:34:48;;;;;;;37.47;29.15;;;;;;;6.43;nan;101885.66;5032208;28;20033;-43
2022/05/03 02:37:36;;;;;;;40.33;29.77;;;;;;;6.49;nan;101906.56;5031925;28;20034;-43
2022/05/03 02:40:07;;;;;;;40.78;29.70;;;;;;;6.38;nan;101866.47;5031943;28;20045;-43
2022/05/03 02:42:33;;;;;;;;;;;;;;;6.52;nan;101883.91;5031375;28;20524;-42
2022/05/03 02:45:00;;;;;;;42.05;28.98;;;;;;;6.16;nan;101823.72;5031942;28;19963;-49
2022/05/03 02:47:42;;;;;;;40.45;29.65;;;;;;;6.57;nan;101891.75;5032375;28;20122;-42
2022/05/03 02:50:21;;;;;;;38.05;30.13;;;;;;;6.49;nan;101869.97;5031881;28;20056;-43
2022/05/03 02:53:05;;;;;;;33.92;27.85;;;;;;;6.65;nan;101895.28;5030572;28;20077;-41
2022/05/03 02:55:49;;;;;;;40.80;30.83;;;;;;;6.69;nan;101897.00;5034514;28;20033;-43
2022/05/03 02:58:36;;;;;;;37.80;27.60;;;;;;;6.37;nan;101821.13;5018261;28;20048;-43
2022/05/03 03:01:48;;;;;;;32.83;26.52;;;;;;;6.79;nan;101885.69;5035261;28;20044;-44
2022/05/03 03:04:32;;;;;;;36.22;29.02;;;;;;;6.43;nan;101807.19;5035535;28;20040;-45
2022/05/03 03:06:59;;;;;;;38.30;28.42;;;;;;;6.85;nan;101877.81;5034369;28;20120;-42
2022/05/03 03:09:44;;;;;;;33.97;27.02;;;;;;;6.97;nan;101883.06;5016047;28;20076;-43
2022/05/03 03:12:40;;;;;;;34.72;27.63;;;;;;;7.04;nan;101881.28;5034037;28;20033;-45
2022/05/03 03:15:10;;;;;;;36.03;29.17;;;;;;;6.83;nan;101836.84;5032289;28;20034;-40
2022/05/03 03:17:48;;;;;;;34.75;27.42;;;;;;;7.13;nan;101873.41;5032378;28;20083;-46
2022/05/03 03:20:14;;;;;;;34.80;27.38;;;;;;;7.17;nan;101877.78;5015979;28;20337;-45
2022/05/03 03:22:47;;;;;;;36.05;27.52;;;;;;;7.20;nan;101883.00;5033279;28;20033;-44
2022/05/03 03:25:14;;;;;;;36.72;28.73;;;;;;;6.86;nan;101811.50;5034296;28;20034;-45
2022/05/03 03:27:42;;;;;;;35.05;27.85;;;;;;;6.90;nan;101802.78;5034302;28;20040;-43
2022/05/03 03:30:09;;;;;;;35.47;27.55;;;;;;;7.21;nan;101855.94;5017429;28;20038;-42
2022/05/03 03:32:43;;;;;;;36.80;27.55;;;;;;;7.00;nan;101809.75;5017751;28;20037;-44
2022/05/03 03:35:08;;;;;;;35.28;28.27;;;;;;;6.95;nan;101789.66;5035197;28;20025;-43
2022/05/03 03:37:34;;;;;;;35.35;28.23;;;;;;;7.44;nan;101876.84;5035198;28;20045;-43
2022/05/03 03:40:01;;;;;;;33.58;26.42;;;;;;;7.45;nan;101878.56;5017243;28;20029;-41
2022/05/03 03:42:28;;;;;;;32.97;26.55;;;;;;;7.29;nan;101838.47;5034738;28;20049;-44
2022/05/03 03:45:01;;;;;;;35.97;27.83;;;;;;;7.32;nan;101847.19;5035168;28;20030;-43
2022/05/03 03:47:28;;;;;;;32.85;26.67;;;;;;;7.34;nan;101868.13;5035259;28;20500;-44
2022/05/03 03:49:56;;;;;;;32.35;26.05;;;;;;;6.92;nan;101797.56;5017342;28;20029;-43
2022/05/03 03:52:21;;;;;;;34.35;26.40;;;;;;;7.15;nan;101867.28;5034856;28;20029;-46
2022/05/03 03:54:47;;;;;;;32.33;25.95;;;;;;;7.11;nan;101875.16;5017070;28;20043;-48
2022/05/03 03:57:13;;;;;;;32.00;26.05;;;;;;;6.98;nan;101866.44;5034807;28;20041;-44
2022/05/03 03:59:39;;;;;;;33.15;25.27;;;;;;;6.94;nan;101874.31;5033764;28;20044;-46
2022/05/03 04:02:05;;;;;;;34.38;25.98;;;;;;;6.88;nan;101884.78;5033635;28;20037;-45
2022/05/03 04:04:36;;;;;;;34.65;26.88;;;;;;;6.75;nan;101873.44;5034959;28;20044;-45
2022/05/03 04:07:02;;;;;;;;;;;;;;;6.71;nan;101879.56;5032865;28;20124;-46
2022/05/03 04:09:27;;;;;;;34.25;26.35;;;;;;;6.66;nan;101881.28;5033467;28;19968;-45
2022/05/03 04:11:53;;;;;;;36.42;27.33;;;;;;;6.37;nan;101836.81;5034634;28;20033;-45
2022/05/03 04:14:18;;;;;;;36.50;27.50;;;;;;;6.32;nan;101835.09;5017091;28;20519;-47
2022/05/03 04:16:45;;;;;;;37.65;27.02;;;;;;;6.50;nan;101883.06;5017059;28;20064;-46
2022/05/03 04:19:11;;;;;;;36.67;28.73;;;;;;;6.47;nan;101863.88;5034594;28;20476;-42
2022/05/03 04:21:37;;;;;;;37.85;30.00;;;;;;;6.56;nan;101877.84;5033241;28;20443;-43
2022/05/03 04:24:02;;;;;;;38.17;29.08;;;;;;;6.52;nan;101878.69;5033151;28;20041;-48
2022/05/03 04:26:28;;;;;;;35.83;28.83;;;;;;;6.52;nan;101880.44;5034232;28;20499;-46
2022/05/03 04:28:58;;;;;;;40.47;30.17;;;;;;;6.55;nan;101894.38;5034323;28;20091;-45
2022/05/03 04:31:27;;;;;;;35.75;28.90;;;;;;;5.87;nan;101762.69;5034215;28;20029;-48
2022/05/03 04:33:53;;;;;;;41.38;30.35;;;;;;;6.58;nan;101883.03;5034225;28;20033;-50
2022/05/03 04:36:19;;;;;;;45.45;30.95;;;;;;;6.59;nan;101877.84;5034048;28;20037;-52
2022/05/03 04:38:44;;;;;;;42.45;31.52;;;;;;;6.48;nan;101836.84;5034062;28;20049;-47
2022/05/03 04:41:09;;;;;;;41.97;32.72;;;;;;;6.72;nan;101862.97;5033824;28;20575;-41
2022/05/03 04:43:35;;;;;;;44.38;32.50;;;;;;;6.95;nan;101876.03;5034054;28;20047;-44
2022/05/03 04:46:00;;;;;;;41.55;32.45;;;;;;;7.08;nan;101877.78;5033868;28;20372;-42
2022/05/03 04:48:25;;;;;;;41.25;32.88;;;;;;;7.15;nan;101864.66;5032678;28;20029;-42
2022/05/03 04:50:51;;;;;;;40.50;31.55;;;;;;;6.94;nan;101816.75;5033667;28;20034;-43
2022/05/03 04:53:16;;;;;;;41.38;30.38;;;;;;;7.32;nan;101873.38;5032387;28;20083;-43
2022/05/03 04:55:42;;;;;;;39.65;31.75;;;;;;;7.34;nan;101886.47;5033660;28;20079;-42
2022/05/03 04:58:08;;;;;;;42.95;32.85;;;;;;;7.02;nan;101821.09;5016051;28;20021;-43
2022/05/03 05:00:33;;;;;;;42.38;32.85;;;;;;;7.21;nan;101846.31;5015951;28;20472;-43
2022/05/03 05:02:58;;;;;;;42.13;31.35;;;;;;;7.42;nan;101873.34;5033352;28;20061;-42
2022/05/03 05:05:24;;;;;;;42.42;31.50;;;;;;;7.22;nan;101829.75;5033536;28;20049;-43
2022/05/03 05:07:49;;;;;;;40.53;32.42;;;;;;;7.61;nan;101886.38;5033344;28;20083;-43
2022/05/03 05:10:24;;;;;;;48.10;34.15;;;;;;;7.84;nan;101889.78;5015721;28;20029;-45
2022/05/03 05:12:55;;;;;;;46.08;33.72;;;;;;;8.04;nan;101900.16;5033633;28;20033;-42
2022/05/03 05:15:24;;;;;;;48.85;36.15;;;;;;;7.97;nan;101847.78;5033495;28;20073;-43
2022/05/03 05:17:53;;;;;;;44.72;35.63;;;;;;;8.11;nan;101838.06;5033151;28;20101;-44
2022/05/03 05:20:19;;;;;;;43.97;33.50;;;;;;;8.56;nan;101892.00;5015507;28;20033;-43
2022/05/03 05:22:45;;;;;;;44.75;33.72;;;;;;;8.73;nan;101890.09;5033203;28;20036;-43
2022/05/03 05:25:10;;;;;;;41.70;33.17;;;;;;;8.44;nan;101824.72;5033360;28;20041;-43
2022/05/03 05:27:36;;;;;;;40.63;32.80;;;;;;;8.93;nan;101883.78;5032240;28;20090;-44
2022/05/03 05:30:08;;;;;;;41.60;32.42;;;;;;;9.09;nan;101891.53;5031923;28;20128;-41
2022/05/03 05:32:34;;;;;;;41.80;32.47;;;;;;;8.90;nan;101843.59;5015600;28;20095;-42
2022/05/03 05:35:00;;;;;;;41.40;31.20;;;;;;;9.31;nan;101904.44;5032714;28;20503;-42
2022/05/03 05:37:25;;;;;;;41.47;31.27;;;;;;;9.47;nan;101900.78;5015167;28;20041;-43
2022/05/03 05:39:51;;;;;;;35.58;30.95;;;;;;;9.25;nan;101841.44;5032746;28;20044;-43
2022/05/03 05:42:16;;;;;;;37.13;30.38;;;;;;;9.68;nan;101901.41;5032680;28;20061;-42
2022/05/03 05:44:41;;;;;;;34.30;29.42;;;;;;;9.71;nan;101914.53;5033183;28;20037;-43
2022/05/03 05:47:06;;;;;;;40.28;30.30;;;;;;;9.76;nan;101904.81;5032624;28;20037;-43
2022/05/03 05:49:32;;;;;;;36.72;30.42;;;;;;;9.84;nan;101913.47;5032651;28;20056;-44
2022/05/03 05:54:43;;;;;;;38.92;28.45;;;;;;;9.73;nan;101858.41;5031870;28;20053;-45
2022/05/03 05:57:08;;;;;;;42.42;31.92;;;;;;;10.19;nan;101916.56;5014916;28;20044;-43
2022/05/03 05:59:34;;;;;;;34.88;29.17;;;;;;;10.27;nan;101919.09;5032597;28;20029;-44
2022/05/03 06:01:59;;;;;;;36.05;30.98;;;;;;;10.02;nan;101858.00;5014739;28;20500;-42
2022/05/03 06:04:27;;;;;;;37.72;30.50;;;;;;;10.07;nan;101848.28;5032392;28;20132;-43
2022/05/03 06:06:56;;;;;;;39.03;30.27;;;;;;;10.52;nan;101921.34;5032406;28;20044;-42
2022/05/03 06:09:22;;;;;;;35.22;30.08;;;;;;;10.58;nan;101923.03;5014773;28;20389;-44
2022/05/03 06:11:47;;;;;;;37.00;29.60;;;;;;;10.45;nan;101872.31;5014366;28;20067;-44
2022/05/03 06:14:12;;;;;;;36.00;30.27;;;;;;;10.16;nan;101809.59;5032295;28;20033;-47
2022/05/03 06:16:49;;;;;;;36.72;30.75;;;;;;;10.86;nan;101911.16;5032191;28;20088;-44
2022/05/03 06:19:14;;;;;;;35.33;29.80;;;;;;;10.96;nan;101930.31;5032441;28;20060;-45
2022/05/03 06:21:40;;;;;;;37.15;30.27;;;;;;;11.01;nan;101920.56;5014480;28;20061;-42
2022/05/03 06:24:06;;;;;;;34.88;29.95;;;;;;;10.72;nan;101868.38;5032123;28;20103;-42
2022/05/03 06:26:31;;;;;;;33.45;29.23;;;;;;;11.16;nan;101922.94;5032264;28;20056;-42
2022/05/03 06:28:57;;;;;;;33.58;29.50;;;;;;;10.94;nan;101868.88;5013975;28;20056;-43
2022/05/03 06:31:24;;;;;;;34.35;30.63;;;;;;;11.43;nan;101926.84;5032471;28;20030;-42
2022/05/03 06:33:49;;;;;;;32.92;29.35;;;;;;;11.29;nan;101875.22;5031075;28;20057;-42
2022/05/03 06:36:15;;;;;;;37.75;29.63;;;;;;;11.65;nan;101929.03;5032061;28;20072;-46
2022/05/03 06:38:40;;;;;;;34.90;30.08;;;;;;;11.65;nan;101933.44;5032157;28;20030;-44
2022/05/03 06:41:08;;;;;;;34.22;29.98;;;;;;;11.68;nan;101921.06;5031913;28;20053;-42
2022/05/03 06:43:34;;;;;;;36.90;33.05;;;;;;;11.80;nan;101928.78;5031998;28;20041;-44
2022/05/03 06:45:59;;;;;;;36.08;32.17;;;;;;;11.91;nan;101931.19;5031930;28;20030;-46
2022/05/03 06:48:24;;;;;;;40.28;32.60;;;;;;;11.74;nan;101880.53;5031598;28;20404;-43
2022/05/03 06:50:49;;;;;;;36.60;32.00;;;;;;;11.81;nan;101864.56;5013854;28;20120;-45
2022/05/03 06:53:15;;;;;;;36.60;32.67;;;;;;;12.20;nan;101920.03;5030289;28;20034;-43
2022/05/03 06:55:40;;;;;;;34.95;31.20;;;;;;;12.28;nan;101932.16;5031756;28;20542;-46
2022/05/03 06:58:05;;;;;;;35.13;31.05;;;;;;;12.31;nan;101949.69;5031790;28;20037;-43
2022/05/03 07:00:31;;;;;;;35.53;31.63;;;;;;;12.09;nan;101878.00;5031260;28;20036;-43
2022/05/03 07:02:56;;;;;;;37.40;30.75;;;;;;;12.45;nan;101944.09;5030671;28;20041;-46
2022/05/03 07:05:21;;;;;;;34.78;30.98;;;;;;;12.43;nan;101938.88;5031052;28;20061;-45
2022/05/03 07:07:47;;;;;;;32.90;28.92;;;;;;;12.15;nan;101887.56;5029429;28;20038;-42
2022/05/03 07:10:12;;;;;;;32.97;29.50;;;;;;;12.49;nan;101949.28;5031546;28;20388;-45
2022/05/03 07:12:38;;;;;;;33.00;28.02;;;;;;;12.65;nan;101950.66;5031601;28;20147;-49
2022/05/03 07:15:08;;;;;;;32.67;29.13;;;;;;;12.57;nan;101938.53;5031689;28;20033;-43
2022/05/03 07:23:02;;;;;;;31.25;28.00;;;;;;;13.16;nan;101950.34;5031702;28;20049;-45
2022/05/03 07:25:27;;;;;;;34.28;29.35;;;;;;;13.22;nan;101948.38;5013883;28;20392;-44
2022/05/03 07:27:53;;;;;;;33.22;27.63;;;;;;;13.22;nan;101945.75;5031610;28;20036;-44
2022/05/03 07:30:18;;;;;;;27.45;24.40;;;;;;;13.04;nan;101911.84;5013979;28;20044;-43
2022/05/03 07:32:44;;;;;;;29.13;25.58;;;;;;;13.22;nan;101942.25;5031584;28;20059;-43
2022/05/03 07:35:10;;;;;;;29.42;25.85;;;;;;;13.21;nan;101969.59;5030940;28;20396;-47
2022/05/03 07:37:37;;;;;;;27.77;24.13;;;;;;;13.21;nan;101956.38;5013663;28;20408;-44
2022/05/03 07:40:03;;;;;;;26.42;23.63;;;;;;;13.42;nan;101966.41;5030395;28;20112;-43
2022/05/03 07:42:29;;;;;;;25.80;23.02;;;;;;;13.42;nan;101963.75;5033691;28;20500;-43
2022/05/03 07:44:54;;;;;;;29.17;26.08;;;;;;;13.32;nan;101912.88;5035228;28;20069;-43
2022/05/03 07:47:19;;;;;;;25.85;23.00;;;;;;;13.50;nan;101920.31;5035244;28;20040;-48
2022/05/03 07:49:45;;;;;;;26.67;23.83;;;;;;;13.64;nan;101924.34;5017513;28;20127;-47
2022/05/03 07:52:10;;;;;;;26.13;23.27;;;;;;;13.71;nan;101923.28;5034994;28;20037;-45
2022/05/03 07:54:40;;;;;;;25.80;23.10;;;;;;;13.91;nan;101948.28;5034869;28;20045;-44
2022/05/03 07:57:06;;;;;;;27.70;23.83;;;;;;;13.84;nan;101933.47;5033482;28;20029;-45
2022/05/03 07:59:31;;;;;;;27.20;23.73;;;;;;;13.86;nan;101958.13;5034823;28;20037;-42
2022/05/03 08:01:56;;;;;;;25.88;23.27;;;;;;;13.87;nan;101925.44;5034932;28;20060;-44
2022/05/03 08:04:22;;;;;;;26.27;23.35;;;;;;;13.94;nan;101977.31;5034983;28;20065;-49
2022/05/03 08:06:47;;;;;;;29.60;26.45;;;;;;;13.87;nan;101978.38;5034454;28;20191;-45
2022/05/03 08:09:12;;;;;;;30.58;27.33;;;;;;;13.77;nan;101978.69;5016708;28;20041;-49
2022/05/03 08:11:38;;;;;;;28.38;25.48;;;;;;;13.35;nan;101981.56;5017122;28;20520;-42
2022/05/03 08:14:04;;;;;;;31.38;25.45;;;;;;;13.38;nan;101970.91;5016853;28;20036;-43
2022/05/03 08:16:31;;;;;;;29.55;26.42;;;;;;;13.58;nan;101966.84;5016666;28;20037;-46
2022/05/03 08:18:57;;;;;;;31.35;27.40;;;;;;;13.34;nan;101923.41;5033221;28;20040;-45
2022/05/03 08:21:22;;;;;;;30.85;26.95;;;;;;;13.76;nan;101969.00;5034392;28;20034;-44
2022/05/03 08:23:48;;;;;;;29.92;26.48;;;;;;;13.46;nan;101936.31;5034329;28;20042;-43
2022/05/03 08:26:13;;;;;;;31.10;25.98;;;;;;;13.70;nan;101991.22;5034304;28;20083;-43
2022/05/03 08:28:41;;;;;;;33.45;27.65;;;;;;;13.62;nan;101987.91;5034407;28;20037;-44
2022/05/03 08:31:07;;;;;;;34.58;29.80;;;;;;;13.44;nan;101944.28;5034348;28;20033;-43
2022/05/03 08:33:33;;;;;;;37.38;30.58;;;;;;;13.47;nan;101924.81;5034286;28;20084;-42
2022/05/03 08:35:58;;;;;;;35.95;29.30;;;;;;;14.04;nan;101991.13;5033845;28;20069;-45
2022/05/03 08:43:53;;;;;;;46.15;36.63;;;;;;;13.73;nan;101977.91;5033755;28;20048;-44
2022/05/03 08:46:20;;;;;;;47.72;37.72;;;;;;;13.51;nan;101926.50;5033699;28;20037;-42
2022/05/03 08:48:47;;;;;;;48.33;36.50;;;;;;;13.97;nan;101990.47;5032264;28;20033;-41
2022/05/03 08:51:15;;;;;;;54.47;38.05;;;;;;;13.99;nan;101982.47;5016264;28;20053;-41
2022/05/03 08:53:41;;;;;;;48.88;37.15;;;;;;;14.04;nan;101991.13;5032273;28;20029;-44
2022/05/03 08:56:06;;;;;;;52.17;38.78;;;;;;;14.23;nan;101991.47;5032541;28;20048;-43
2022/05/03 08:58:32;;;;;;;55.72;39.97;;;;;;;14.26;nan;101988.75;5015937;28;20038;-43
2022/05/03 09:00:58;;;;;;;52.60;37.88;;;;;;;14.53;nan;101993.25;5033602;28;20076;-42
2022/05/03 09:03:24;;;;;;;59.45;41.78;;;;;;;14.41;nan;101998.94;5033530;28;20454;-42
2022/05/03 09:05:49;;;;;;;57.30;39.33;;;;;;;14.46;nan;102004.94;5033533;28;20528;-44
2022/05/03 09:08:21;;;;;;;58.40;39.92;;;;;;;14.07;nan;101946.91;5033663;28;20079;-45
2022/05/03 09:10:47;;;;;;;58.20;39.38;;;;;;;14.22;nan;102002.97;5032294;28;20033;-44
2022/05/03 09:13:20;;;;;;;61.92;40.20;;;;;;;14.16;nan;102005.78;5015934;28;20087;-43
2022/05/03 09:15:48;;;;;;;57.67;38.35;;;;;;;13.93;nan;101994.09;5033337;28;20357;-44
2022/05/03 09:18:21;;;;;;;64.40;42.55;;;;;;;14.03;nan;101998.22;5032339;28;20401;-45
2022/05/03 09:23:49;;;;;;;65.80;40.75;;;;;;;13.75;nan;101996.34;5033642;28;20044;-46
2022/05/03 09:26:23;;;;;;;57.90;38.00;;;;;;;13.45;nan;101926.66;5029636;28;20103;-44
2022/05/03 09:28:53;;;;;;;59.92;38.33;;;;;;;13.78;nan;101983.03;5033478;28;20476;-43
2022/05/03 09:31:33;;;;;;;54.95;36.22;;;;;;;13.99;nan;102011.56;5032647;28;20104;-45
2022/05/03 09:34:04;;;;;;;52.50;35.47;;;;;;;13.69;nan;101923.31;5015190;28;20025;-42
2022/05/03 09:36:49;;;;;;;;;;;;;;;14.17;nan;102003.13;5033073;28;20041;-44
2022/05/03 09:39:25;;;;;;;52.80;34.85;;;;;;;14.22;nan;102013.56;5032767;28;19916;-45
2022/05/03 09:42:06;;;;;;;48.45;33.22;;;;;;;14.56;nan;102007.25;5014864;28;20136;-43
2022/05/03 09:44:36;;;;;;;50.38;33.55;;;;;;;14.62;nan;101991.19;5032411;28;20030;-45
2022/05/03 09:47:06;;;;;;;54.30;34.20;;;;;;;14.40;nan;101950.38;5012203;28;20048;-44
2022/05/03 09:49:37;;;;;;;49.90;33.10;;;;;;;14.46;nan;101954.59;5031333;28;20041;-42
2022/05/03 09:52:04;;;;;;;49.72;34.10;;;;;;;14.62;nan;101985.88;5032256;28;20647;-45
2022/05/03 09:54:47;;;;;;;45.90;31.00;;;;;;;14.44;nan;101952.03;5032478;28;20091;-43
2022/05/03 09:57:20;;;;;;;39.20;28.35;;;;;;;14.19;nan;101945.69;4995021;28;20088;-44
2022/05/03 09:59:50;;;;;;;45.15;30.35;;;;;;;14.33;nan;101948.81;5022993;28;20041;-43
2022/05/03 10:02:20;;;;;;;42.20;29.27;;;;;;;14.79;nan;101985.38;5032083;28;20088;-48
2022/05/03 10:04:46;;;;;;;40.90;27.92;;;;;;;14.45;nan;101894.59;5031171;28;20112;-47
2022/05/03 10:07:12;;;;;;;39.20;27.20;;;;;;;15.35;nan;102004.75;5032372;28;20073;-43
2022/05/03 10:09:40;;;;;;;43.08;28.50;;;;;;;15.57;nan;102008.41;5010813;28;20073;-44
2022/05/03 10:12:06;;;;;;;39.40;28.27;;;;;;;15.32;nan;101961.53;5012375;28;20057;-44
2022/05/03 10:14:31;;;;;;;34.30;25.05;;;;;;;15.30;nan;101956.25;4995268;28;20406;-42
2022/05/03 10:22:26;;;;;;;40.85;27.98;;;;;;;15.32;nan;102009.28;5011699;28;20080;-48
2022/05/03 10:24:53;;;;;;;40.13;28.00;;;;;;;15.33;nan;102017.16;5021206;28;20037;-43
2022/05/03 10:27:23;;;;;;;41.20;28.70;;;;;;;15.30;nan;102005.78;5016170;28;20053;-44
2022/05/03 10:30:15;;;;;;;43.47;29.17;;;;;;;15.11;nan;102021.47;5020536;28;20029;-46
2022/05/03 10:32:40;;;;;;;44.05;28.55;;;;;;;14.67;nan;101953.06;5031592;28;20076;-45
2022/05/03 10:35:32;;;;;;;44.03;28.73;;;;;;;14.79;nan;102013.66;5031619;28;20431;-43
2022/05/03 10:37:57;;;;;;;40.13;25.15;;;;;;;14.68;nan;102019.31;5031573;28;20554;-44
2022/05/03 10:40:39;;;;;;;40.83;28.00;;;;;;;14.78;nan;102012.78;5031196;28;20029;-43
2022/05/03 10:43:09;;;;;;;37.70;25.75;;;;;;;15.00;nan;102007.69;5029867;28;20779;-45
2022/05/03 10:46:13;;;;;;;44.00;28.10;;;;;;;15.14;nan;102016.06;5030329;28;20383;-48
2022/05/03 10:48:41;;;;;;;40.70;26.77;;;;;;;15.26;nan;102006.81;5014015;28;20485;-43
2022/05/03 10:51:11;;;;;;;37.83;25.75;;;;;;;15.33;nan;102000.38;5014247;28;20056;-49
2022/05/03 10:53:40;;;;;;;37.72;26.42;;;;;;;15.21;nan;101973.34;5021134;28;20033;-44
2022/05/03 10:56:16;;;;;;;40.60;27.58;;;;;;;15.18;nan;101952.22;5019096;28;20033;-43
2022/05/03 10:58:47;;;;;;;39.50;26.83;;;;;;;15.68;nan;102005.38;5031598;28;20026;-46
2022/05/03 11:01:18;;;;;;;33.05;24.63;;;;;;;15.62;nan;102019.72;5031700;28;20104;-43
2022/05/03 11:03:47;;;;;;;37.05;25.80;;;;;;;15.86;nan;101996.78;5021968;28;20025;-45
2022/05/03 11:06:27;;;;;;;38.83;27.25;;;;;;;15.97;nan;102004.34;5031284;28;20072;-45
2022/05/03 11:09:08;;;;;;;36.58;25.45;;;;;;;16.55;nan;102017.22;5016487;28;20033;-49
2022/05/03 11:11:39;;;;;;;27.48;20.95;;;;;;;17.00;nan;102017.22;5031514;28;20044;-45
2022/05/03 11:14:06;;;;;;;23.40;16.83;;;;;;;16.93;nan;102012.22;5031442;28;20032;-43
2022/05/03 11:16:34;;;;;;;19.70;16.05;;;;;;;16.34;nan;101952.44;5024757;28;20038;-47
2022/05/03 11:19:14;;;;;;;22.63;17.88;;;;;;;16.14;nan;101915.13;5045970;28;20035;-42
2022/05/03 11:21:40;;;;;;;31.48;22.05;;;;;;;16.60;nan;102001.97;5035347;28;20033;-43
2022/05/03 11:24:17;;;;;;;34.20;24.55;;;;;;;16.36;nan;101999.34;5017842;28;20037;-44
2022/05/03 11:26:42;;;;;;;38.88;26.95;;;;;;;16.16;nan;101994.78;5033244;28;20030;-41
2022/05/03 11:29:08;;;;;;;37.17;26.35;;;;;;;15.59;nan;101982.69;5033934;28;20034;-45
2022/05/03 11:31:33;;;;;;;39.47;26.75;;;;;;;15.79;nan;101984.63;5034282;28;20038;-42
2022/05/03 11:33:59;;;;;;;37.13;26.13;;;;;;;15.62;nan;101925.97;5035522;28;20033;-42
2022/05/03 11:36:25;;;;;;;34.22;24.52;;;;;;;15.64;nan;101917.03;5033952;28;20049;-43
2022/05/03 11:38:52;;;;;;;31.95;24.05;;;;;;;16.12;nan;101924.97;5035365;28;20103;-42
2022/05/03 11:41:25;;;;;;;32.50;22.90;;;;;;;16.37;nan;101930.22;5030706;28;20054;-42
2022/05/03 11:43:51;;;;;;;30.98;23.30;;;;;;;16.71;nan;101935.09;5015336;28;20038;-42
2022/05/03 11:46:17;;;;;;;30.38;21.48;;;;;;;17.09;nan;101979.59;5030646;28;20040;-45
2022/05/03 11:48:43;;;;;;;28.15;20.33;;;;;;;16.47;nan;101968.78;5015556;28;20393;-43
2022/05/03 11:56:45;;;;;;;24.90;16.80;;;;;;;15.55;nan;101969.59;5015364;28;20114;-49
2022/05/03 11:59:10;;;;;;;23.83;16.77;;;;;;;14.97;nan;101963.53;5014136;28;20034;-49
2022/05/03 12:01:36;;;;;;;23.20;17.73;;;;;;;14.42;nan;101908.78;5013830;28;20460;-47
2022/05/03 12:04:03;;;;;;;25.38;18.60;;;;;;;14.73;nan;101964.34;5014972;28;20056;-50
2022/05/03 12:06:43;;;;;;;21.67;16.52;;;;;;;14.54;nan;101952.59;5014928;28;20041;-43
2022/05/03 12:09:12;;;;;;;22.50;16.90;;;;;;;14.34;nan;101962.91;5015248;28;20041;-42
2022/05/03 12:12:42;;;;;;;25.30;19.08;;;;;;;14.16;nan;101968.72;5014957;28;20481;-44
2022/05/03 12:14:34;;;;;;;23.95;16.75;;;;;;;13.90;nan;101958.88;5014737;28;20041;-43
2022/05/03 12:16:59;;;;;;;21.38;16.42;;;;;;;13.59;nan;101956.25;5013477;28;20029;-43